createdAt,value
2022-08-16T00:00:03.614Z,94214.88
2022-08-16T00:02:34.412Z,94220.53
2022-08-16T00:05:02.831Z,94217.28
2022-08-16T00:07:30.541Z,94202.63
2022-08-16T00:09:59.052Z,94212.59
2022-08-16T00:12:31.398Z,94220.25
2022-08-16T00:15:01.714Z,94192.34
2022-08-16T00:17:28.570Z,94226.41
2022-08-16T00:20:15.612Z,94232.88
2022-08-16T00:22:44.106Z,94212.53
2022-08-16T00:25:15.406Z,94215.81
2022-08-16T00:27:43.403Z,94215.78
2022-08-16T00:30:19.457Z,94216.81
2022-08-16T00:32:58.099Z,94213.28
2022-08-16T00:35:34.903Z,94215.75
2022-08-16T00:38:41.514Z,94217.91
2022-08-16T00:40:55.297Z,94213.50
2022-08-16T00:43:42.698Z,94200.91
2022-08-16T00:46:33.766Z,94210.13
2022-08-16T00:49:17.638Z,94203.38
2022-08-16T00:51:55.086Z,94212.91
2022-08-16T00:54:26.783Z,94216.09
2022-08-16T00:57:00.056Z,94205.41
2022-08-16T00:59:32.806Z,94217.53
2022-08-16T01:02:01.142Z,94174.00
2022-08-16T01:05:09.631Z,94199.38
2022-08-16T01:07:50.407Z,94208.44
2022-08-16T01:10:21.473Z,94196.91
2022-08-16T01:13:05.242Z,94204.13
2022-08-16T01:15:36.158Z,94198.44
2022-08-16T01:18:05.901Z,94196.91
2022-08-16T01:20:38.275Z,94208.44
2022-08-16T01:23:18.635Z,94216.41
2022-08-16T01:25:59.906Z,94213.66
2022-08-16T01:28:39.011Z,94211.06
2022-08-16T01:31:14.766Z,94210.91
2022-08-16T01:33:44.511Z,94227.44
2022-08-16T01:36:13.080Z,94229.16
2022-08-16T01:38:51.309Z,94213.78
2022-08-16T01:41:30.000Z,94207.97
2022-08-16T01:44:00.993Z,94189.94
2022-08-16T01:46:42.618Z,94199.34
2022-08-16T01:49:15.715Z,94209.50
2022-08-16T01:51:47.976Z,94209.75
2022-08-16T01:54:30.918Z,94182.75
2022-08-16T01:57:00.350Z,94181.94
2022-08-16T01:59:29.115Z,94190.16
2022-08-16T02:01:59.613Z,94179.75
2022-08-16T02:04:48.816Z,94185.38
2022-08-16T02:07:18.783Z,94173.00
2022-08-16T02:09:58.667Z,94179.16
2022-08-16T02:12:50.124Z,94178.13
2022-08-16T02:15:25.210Z,94175.97
2022-08-16T02:17:58.291Z,94173.69
2022-08-16T02:20:27.799Z,94186.91
2022-08-16T02:22:56.557Z,94194.94
2022-08-16T02:25:24.778Z,94181.53
2022-08-16T02:28:11.659Z,94159.94
2022-08-16T02:30:50.528Z,94157.00
2022-08-16T02:33:19.534Z,94169.94
2022-08-16T02:35:55.178Z,94171.31
2022-08-16T02:38:29.158Z,94163.16
2022-08-16T02:41:01.763Z,94196.13
2022-08-16T02:43:33.134Z,94180.50
2022-08-16T02:46:07.381Z,94163.69
2022-08-16T02:48:38.678Z,94198.44
2022-08-16T02:51:10.622Z,94167.56
2022-08-16T02:53:43.862Z,94187.16
2022-08-16T02:56:16.908Z,94204.66
2022-08-16T02:58:50.711Z,94184.41
2022-08-16T03:01:24.924Z,94199.09
2022-08-16T03:04:29.993Z,94192.13
2022-08-16T03:06:56.374Z,94195.28
2022-08-16T03:09:49.899Z,94190.41
2022-08-16T03:12:21.390Z,94196.09
2022-08-16T03:14:57.843Z,94189.59
2022-08-16T03:17:32.185Z,94188.66
2022-08-16T03:20:03.190Z,94189.03
2022-08-16T03:22:37.533Z,94221.81
2022-08-16T03:25:13.950Z,94215.63
2022-08-16T03:27:51.887Z,94214.22
2022-08-16T03:30:24.158Z,94211.22
2022-08-16T03:32:58.126Z,94204.03
2022-08-16T03:35:33.262Z,94199.09
2022-08-16T03:38:32.528Z,94206.78
2022-08-16T03:41:14.401Z,94196.69
2022-08-16T03:43:55.883Z,94215.22
2022-08-16T03:46:47.903Z,94220.81
2022-08-16T03:49:15.677Z,94224.63
2022-08-16T03:51:46.255Z,94209.84
2022-08-16T03:54:28.578Z,94232.13
2022-08-16T03:56:57.961Z,94217.28
2022-08-16T03:59:30.273Z,94213.59
2022-08-16T04:02:21.901Z,94217.47
2022-08-16T04:04:51.924Z,94209.81
2022-08-16T04:07:18.903Z,94177.19
2022-08-16T04:09:47.484Z,94208.19
2022-08-16T04:13:04.344Z,94198.56
2022-08-16T04:15:02.998Z,94201.41
2022-08-16T04:17:37.059Z,94215.13
2022-08-16T04:20:23.874Z,94226.94
2022-08-16T04:22:58.333Z,94224.22
2022-08-16T04:25:27.545Z,94199.66
2022-08-16T04:27:55.999Z,94219.31
2022-08-16T04:30:31.690Z,94210.25
2022-08-16T04:33:02.318Z,94198.00
2022-08-16T04:35:34.528Z,94217.50
2022-08-16T04:38:10.948Z,94199.75
2022-08-16T04:40:50.583Z,94204.59
2022-08-16T04:43:19.164Z,94214.44
2022-08-16T04:45:47.249Z,94221.31
2022-08-16T04:48:32.588Z,94228.34
2022-08-16T04:51:11.560Z,94228.41
2022-08-16T04:53:45.894Z,94231.47
2022-08-16T04:56:16.531Z,94217.69
2022-08-16T04:58:46.600Z,94212.47
2022-08-16T05:01:17.983Z,94228.53
2022-08-16T05:04:00.994Z,94229.13
2022-08-16T05:06:41.989Z,94227.66
2022-08-16T05:09:19.254Z,94237.13
2022-08-16T05:11:53.225Z,94241.91
2022-08-16T05:14:45.988Z,94243.03
2022-08-16T05:17:12.876Z,94234.91
2022-08-16T05:19:39.873Z,94232.13
2022-08-16T05:22:18.340Z,94236.13
2022-08-16T05:24:55.124Z,94233.00
2022-08-16T05:27:23.191Z,94226.28
2022-08-16T05:29:57.071Z,94236.91
2022-08-16T05:32:34.107Z,94252.28
2022-08-16T05:35:14.583Z,94240.25
2022-08-16T05:37:59.822Z,94256.38
2022-08-16T05:40:27.269Z,94257.91
2022-08-16T05:42:55.614Z,94254.69
2022-08-16T05:45:23.862Z,94220.56
2022-08-16T05:48:00.384Z,94233.59
2022-08-16T05:50:41.656Z,94229.13
2022-08-16T05:53:10.055Z,94248.66
2022-08-16T05:55:45.986Z,94254.41
2022-08-16T05:58:31.970Z,94257.09
2022-08-16T06:01:01.098Z,94254.28
2022-08-16T06:03:30.901Z,94245.16
2022-08-16T06:06:02.618Z,94228.28
2022-08-16T06:08:42.336Z,94220.81
2022-08-16T06:11:15.252Z,94228.06
2022-08-16T06:13:48.303Z,94233.38
2022-08-16T06:16:22.148Z,94225.59
2022-08-16T06:18:54.778Z,94253.63
2022-08-16T06:21:23.705Z,94252.56
2022-08-16T06:23:57.181Z,94248.25
2022-08-16T06:26:36.826Z,94238.28
2022-08-16T06:29:08.249Z,94245.19
2022-08-16T06:31:49.059Z,94262.06
2022-08-16T06:34:31.568Z,94253.63
2022-08-16T06:37:08.022Z,94266.19
2022-08-16T06:39:49.707Z,94271.03
2022-08-16T06:42:47.544Z,94240.09
2022-08-16T06:45:43.202Z,94268.13
2022-08-16T06:48:33.211Z,94278.94
2022-08-16T06:51:04.789Z,94282.19
2022-08-16T06:53:35.497Z,94275.13
2022-08-16T06:56:14.794Z,94282.00
2022-08-16T06:59:12.482Z,94293.47
2022-08-16T07:01:54.372Z,94257.47
2022-08-16T07:04:33.084Z,94275.41
2022-08-16T07:07:14.588Z,94257.84
2022-08-16T07:09:42.476Z,94268.06
2022-08-16T07:12:09.700Z,94257.09
2022-08-16T07:14:41.819Z,94249.03
2022-08-16T07:17:12.904Z,94250.88
2022-08-16T07:20:29.478Z,94283.13
2022-08-16T07:22:52.575Z,94294.63
2022-08-16T07:25:27.689Z,94314.13
2022-08-16T07:27:55.106Z,94313.22
2022-08-16T07:30:39.219Z,94290.63
2022-08-16T07:33:52.502Z,94275.66
2022-08-16T07:36:09.859Z,94297.06
2022-08-16T07:38:42.672Z,94294.25
2022-08-16T07:41:10.783Z,94290.69
2022-08-16T07:43:43.648Z,94276.88
2022-08-16T07:46:38.363Z,94306.72
2022-08-16T07:49:05.050Z,94298.19
2022-08-16T07:51:39.086Z,94303.09
2022-08-16T07:54:10.719Z,94285.09
2022-08-16T07:56:44.505Z,94295.97
2022-08-16T07:59:11.526Z,94299.28
2022-08-16T08:01:41.490Z,94291.31
2022-08-16T08:04:13.004Z,94307.22
2022-08-16T08:06:42.740Z,94309.66
2022-08-16T08:09:17.006Z,94298.78
2022-08-16T08:12:00.629Z,94308.16
2022-08-16T08:14:35.264Z,94297.59
2022-08-16T08:17:02.099Z,94279.63
2022-08-16T08:19:32.351Z,94258.41
2022-08-16T08:22:02.536Z,94310.84
2022-08-16T08:24:43.840Z,94317.94
2022-08-16T08:27:12.888Z,94320.16
2022-08-16T08:30:50.354Z,94305.59
2022-08-16T08:32:57.726Z,94320.59
2022-08-16T08:35:27.108Z,94322.75
2022-08-16T08:37:56.597Z,94322.53
2022-08-16T08:40:28.103Z,94317.81
2022-08-16T08:43:12.014Z,94311.34
2022-08-16T08:45:48.600Z,94308.06
2022-08-16T08:48:32.842Z,94321.53
2022-08-16T08:51:08.912Z,94283.97
2022-08-16T08:53:44.269Z,94324.91
2022-08-16T08:56:23.008Z,94302.22
2022-08-16T08:58:59.187Z,94307.03
2022-08-16T09:01:42.972Z,94285.25
2022-08-16T09:04:25.055Z,94301.53
2022-08-16T09:06:54.177Z,94290.25
2022-08-16T09:09:23.250Z,94302.25
2022-08-16T09:12:06.638Z,94309.22
2022-08-16T09:14:50.832Z,94278.69
2022-08-16T09:17:45.271Z,94268.41
2022-08-16T09:20:16.483Z,94316.66
2022-08-16T09:22:44.312Z,94314.47
2022-08-16T09:25:25.794Z,94313.69
2022-08-16T09:27:58.070Z,94309.06
2022-08-16T09:30:43.415Z,94329.03
2022-08-16T09:33:14.601Z,94321.50
2022-08-16T09:35:42.826Z,94302.75
2022-08-16T09:38:12.377Z,94290.09
2022-08-16T09:40:49.140Z,94326.53
2022-08-16T09:43:53.063Z,94327.41
2022-08-16T09:46:46.027Z,94302.63
2022-08-16T09:48:56.582Z,94307.88
2022-08-16T09:51:30.573Z,94287.06
2022-08-16T09:53:57.751Z,94306.91
2022-08-16T09:56:31.700Z,94301.00
2022-08-16T09:59:03.276Z,94310.13
2022-08-16T10:01:31.887Z,94307.28
2022-08-16T10:04:01.711Z,94280.19
2022-08-16T10:06:33.437Z,94285.41
2022-08-16T10:09:11.244Z,94303.09
2022-08-16T10:12:11.733Z,94280.16
2022-08-16T10:14:46.238Z,94283.09
2022-08-16T10:17:13.458Z,94306.69
2022-08-16T10:19:40.295Z,94297.88
2022-08-16T10:22:07.106Z,94296.59
2022-08-16T10:24:34.063Z,94292.25
2022-08-16T10:27:25.311Z,94294.59
2022-08-16T10:30:00.870Z,94290.19
2022-08-16T10:32:30.338Z,94295.44
2022-08-16T10:34:57.792Z,94310.25
2022-08-16T10:37:32.259Z,94320.41
2022-08-16T10:40:28.492Z,94291.91
2022-08-16T10:43:00.268Z,94306.47
2022-08-16T10:45:36.466Z,94303.56
2022-08-16T10:48:06.448Z,94286.09
2022-08-16T10:50:53.337Z,94318.19
2022-08-16T10:53:21.751Z,94308.94
2022-08-16T10:55:57.523Z,94285.44
2022-08-16T10:58:34.383Z,94289.84
2022-08-16T11:03:57.427Z,94312.59
2022-08-16T11:06:26.953Z,94293.22
2022-08-16T11:14:30.736Z,94316.03
2022-08-16T11:17:09.338Z,94280.59
2022-08-16T11:22:42.221Z,94296.25
2022-08-16T11:28:08.495Z,94301.53
2022-08-16T11:30:39.203Z,94316.50
2022-08-16T11:33:09.100Z,94292.34
2022-08-16T11:38:51.883Z,94317.41
2022-08-16T11:41:13.886Z,94317.03
2022-08-16T11:43:42.022Z,94291.47
2022-08-16T11:46:44.339Z,94306.28
2022-08-16T11:48:59.850Z,94288.78
2022-08-16T11:51:27.479Z,94304.72
2022-08-16T11:53:54.581Z,94289.91
2022-08-16T11:56:39.614Z,94286.19
2022-08-16T11:59:08.903Z,94299.59
2022-08-16T12:01:44.424Z,94292.81
2022-08-16T12:04:23.196Z,94294.22
2022-08-16T12:06:53.753Z,94284.66
2022-08-16T12:09:22.488Z,94265.38
2022-08-16T12:11:52.802Z,94273.91
2022-08-16T12:14:22.845Z,94277.59
2022-08-16T12:16:55.517Z,94295.94
2022-08-16T12:19:35.123Z,94283.84
2022-08-16T12:22:05.744Z,94272.09
2022-08-16T12:24:47.973Z,94256.84
2022-08-16T12:27:19.454Z,94272.50
2022-08-16T12:29:46.204Z,94263.72
2022-08-16T12:32:38.646Z,94258.94
2022-08-16T12:35:00.127Z,94259.09
2022-08-16T12:37:27.797Z,94225.00
2022-08-16T12:39:56.828Z,94242.09
2022-08-16T12:42:34.431Z,94264.66
2022-08-16T12:45:10.158Z,94262.78
2022-08-16T12:48:16.041Z,94268.25
2022-08-16T12:50:43.566Z,94260.09
2022-08-16T12:53:16.886Z,94266.50
2022-08-16T12:55:44.959Z,94254.06
2022-08-16T12:58:49.276Z,94254.84
2022-08-16T13:01:03.462Z,94246.19
2022-08-16T13:03:32.268Z,94268.00
2022-08-16T13:06:08.269Z,94253.81
2022-08-16T13:08:35.123Z,94251.41
2022-08-16T13:11:04.706Z,94260.06
2022-08-16T13:13:36.112Z,94237.84
2022-08-16T13:16:15.133Z,94245.41
2022-08-16T13:18:52.728Z,94250.91
2022-08-16T13:21:23.385Z,94250.50
2022-08-16T13:23:55.305Z,94241.31
2022-08-16T13:26:24.357Z,94251.03
2022-08-16T13:28:53.910Z,94248.25
2022-08-16T13:31:20.714Z,94249.69
2022-08-16T13:33:47.607Z,94234.47
2022-08-16T13:36:32.153Z,94249.50
2022-08-16T13:39:01.934Z,94256.25
2022-08-16T13:41:30.141Z,94239.41
2022-08-16T13:44:00.900Z,94242.78
2022-08-16T13:46:36.849Z,94253.66
2022-08-16T13:49:04.302Z,94249.97
2022-08-16T13:51:31.605Z,94251.72
2022-08-16T13:54:03.950Z,94254.41
2022-08-16T13:56:38.837Z,94251.25
2022-08-16T13:59:19.511Z,94236.97
2022-08-16T14:01:59.762Z,94246.56
2022-08-16T14:04:34.041Z,94243.22
2022-08-16T14:07:04.392Z,94239.47
2022-08-16T14:09:34.518Z,94224.97
2022-08-16T14:12:09.527Z,94229.00
2022-08-16T14:14:36.971Z,94238.50
2022-08-16T14:17:04.562Z,94231.34
2022-08-16T14:19:31.321Z,94228.03
2022-08-16T14:22:14.203Z,94227.50
2022-08-16T14:24:45.376Z,94225.84
2022-08-16T14:27:16.990Z,94228.56
2022-08-16T14:29:45.752Z,94230.88
2022-08-16T14:32:33.359Z,94244.31
2022-08-16T14:35:08.933Z,94239.00
2022-08-16T14:37:37.199Z,94235.25
2022-08-16T14:40:10.804Z,94233.78
2022-08-16T14:42:40.968Z,94246.22
2022-08-16T14:45:14.580Z,94244.00
2022-08-16T14:47:42.151Z,94231.88
2022-08-16T14:50:13.686Z,94213.53
2022-08-16T14:52:56.634Z,94205.66
2022-08-16T14:55:27.414Z,94220.75
2022-08-16T14:57:54.955Z,94208.53
2022-08-16T15:00:27.014Z,94215.63
2022-08-16T15:03:02.343Z,94218.63
2022-08-16T15:08:01.703Z,94221.19
2022-08-16T15:10:29.361Z,94212.06
2022-08-16T15:12:58.382Z,94221.66
2022-08-16T15:15:29.173Z,94215.16
2022-08-16T15:17:57.401Z,94248.38
2022-08-16T15:20:29.173Z,94220.28
2022-08-16T15:22:57.388Z,94223.25
2022-08-16T15:25:34.501Z,94199.13
2022-08-16T15:28:04.599Z,94213.47
2022-08-16T15:30:58.089Z,94229.44
2022-08-16T15:33:25.340Z,94226.31
2022-08-16T15:35:57.891Z,94204.84
2022-08-16T15:38:55.088Z,94219.53
2022-08-16T15:41:48.623Z,94224.06
2022-08-16T15:44:22.300Z,94222.97
2022-08-16T15:46:59.784Z,94244.91
2022-08-16T15:49:37.825Z,94187.88
2022-08-16T15:52:29.134Z,94211.84
2022-08-16T15:54:57.277Z,94222.44
2022-08-16T15:57:26.627Z,94212.59
2022-08-16T15:59:56.367Z,94198.41
2022-08-16T16:02:38.635Z,94213.84
2022-08-16T16:05:09.872Z,94210.69
2022-08-16T16:07:40.755Z,94217.91
2022-08-16T16:10:22.355Z,94225.31
2022-08-16T16:12:58.084Z,94225.06
2022-08-16T16:15:33.702Z,94229.19
2022-08-16T16:18:05.260Z,94217.25
2022-08-16T16:20:39.741Z,94211.03
2022-08-16T16:23:10.347Z,94213.22
2022-08-16T16:25:38.831Z,94213.25
2022-08-16T16:28:12.845Z,94209.63
2022-08-16T16:30:56.547Z,94190.66
2022-08-16T16:33:26.710Z,94202.41
2022-08-16T16:36:00.385Z,94210.84
2022-08-16T16:38:30.994Z,94208.66
2022-08-16T16:41:11.347Z,94205.09
2022-08-16T16:43:41.706Z,94195.31
2022-08-16T16:46:40.691Z,94204.72
2022-08-16T16:48:56.874Z,94197.81
2022-08-16T16:51:24.571Z,94188.13
2022-08-16T16:53:56.621Z,94175.75
2022-08-16T16:56:30.203Z,94183.34
2022-08-16T16:59:04.813Z,94196.25
2022-08-16T17:01:59.344Z,94187.75
2022-08-16T17:04:32.517Z,94193.25
2022-08-16T17:07:03.233Z,94197.38
2022-08-16T17:09:30.427Z,94196.97
2022-08-16T17:11:58.603Z,94196.09
2022-08-16T17:14:33.180Z,94191.00
2022-08-16T17:17:02.310Z,94187.66
2022-08-16T17:19:31.799Z,94178.97
2022-08-16T17:22:00.001Z,94187.53
2022-08-16T17:24:31.427Z,94180.78
2022-08-16T17:27:07.870Z,94185.47
2022-08-16T17:29:42.885Z,94180.69
2022-08-16T17:32:33.870Z,94192.16
2022-08-16T17:35:08.565Z,94180.44
2022-08-16T17:37:48.890Z,94187.91
2022-08-16T17:40:38.041Z,94183.34
2022-08-16T17:43:14.056Z,94178.13
2022-08-16T17:45:42.575Z,94171.06
2022-08-16T17:48:09.980Z,94179.94
2022-08-16T17:50:37.561Z,94168.94
2022-08-16T17:53:07.291Z,94179.69
2022-08-16T17:55:38.153Z,94170.00
2022-08-16T17:58:09.914Z,94171.63
2022-08-16T18:00:52.277Z,94184.09
2022-08-16T18:04:06.833Z,94181.72
2022-08-16T18:06:23.231Z,94175.25
2022-08-16T18:08:55.861Z,94164.00
2022-08-16T18:11:27.833Z,94160.44
2022-08-16T18:13:55.253Z,94160.34
2022-08-16T18:16:22.806Z,94166.66
2022-08-16T18:18:49.970Z,94160.59
2022-08-16T18:21:35.638Z,94159.59
2022-08-16T18:24:02.878Z,94167.84
2022-08-16T18:26:30.020Z,94163.03
2022-08-16T18:28:57.021Z,94160.75
2022-08-16T18:31:25.354Z,94162.09
2022-08-16T18:33:55.509Z,94152.88
2022-08-16T18:36:24.515Z,94159.44
2022-08-16T18:38:52.526Z,94153.63
2022-08-16T18:41:22.003Z,94168.09
2022-08-16T18:44:23.968Z,94175.16
2022-08-16T18:46:36.251Z,94165.81
2022-08-16T18:49:03.774Z,94182.38
2022-08-16T18:51:32.712Z,94190.28
2022-08-16T18:53:59.894Z,94192.69
2022-08-16T18:59:30.500Z,94188.22
2022-08-16T19:04:48.984Z,94195.06
2022-08-16T19:07:29.751Z,94200.91
2022-08-16T19:09:59.622Z,94191.72
2022-08-16T19:12:38.660Z,94195.50
2022-08-16T19:15:14.090Z,94197.22
2022-08-16T19:17:41.437Z,94207.44
2022-08-16T19:20:11.076Z,94203.63
2022-08-16T19:23:02.389Z,94204.91
2022-08-16T19:25:46.955Z,94202.28
2022-08-16T19:28:49.450Z,94202.97
2022-08-16T19:31:04.856Z,94211.19
2022-08-16T19:33:32.624Z,94212.97
2022-08-16T19:36:00.349Z,94216.69
2022-08-16T19:38:27.195Z,94215.50
2022-08-16T19:40:54.247Z,94211.66
2022-08-16T19:43:22.021Z,94209.56
2022-08-16T19:45:49.699Z,94215.34
2022-08-16T19:48:16.810Z,94184.97
2022-08-16T19:50:43.670Z,94216.94
2022-08-16T19:53:19.217Z,94215.81
2022-08-16T19:55:47.706Z,94208.97
2022-08-16T19:58:15.527Z,94212.09
2022-08-16T20:00:43.620Z,94206.91
2022-08-16T20:03:18.305Z,94215.22
2022-08-16T20:05:45.399Z,94206.28
2022-08-16T20:08:13.851Z,94220.19
2022-08-16T20:10:45.297Z,94228.50
2022-08-16T20:13:21.289Z,94207.53
2022-08-16T20:15:50.113Z,94217.78
2022-08-16T20:18:24.502Z,94227.03
2022-08-16T20:20:52.481Z,94192.19
2022-08-16T20:23:24.493Z,94191.03
2022-08-16T20:25:56.064Z,94212.13
2022-08-16T20:28:40.633Z,94199.88
2022-08-16T20:31:12.460Z,94220.06
2022-08-16T20:33:40.585Z,94225.06
2022-08-16T20:36:07.887Z,94213.72
2022-08-16T20:38:35.407Z,94214.56
2022-08-16T20:41:02.402Z,94231.03
2022-08-16T20:43:29.582Z,94232.75
2022-08-16T20:45:56.432Z,94215.38
2022-08-16T20:48:23.203Z,94205.69
2022-08-16T20:50:50.188Z,94196.56
2022-08-16T20:53:17.051Z,94198.34
2022-08-16T20:55:44.835Z,94194.22
2022-08-16T20:58:11.883Z,94196.97
2022-08-16T21:00:38.787Z,94204.88
2022-08-16T21:03:07.451Z,94217.56
2022-08-16T21:05:34.618Z,94232.97
2022-08-16T21:08:02.610Z,94219.22
2022-08-16T21:10:50.170Z,94236.41
2022-08-16T21:13:17.521Z,94232.47
2022-08-16T21:15:44.672Z,94242.84
2022-08-16T21:18:11.521Z,94225.31
2022-08-16T21:20:38.311Z,94229.53
2022-08-16T21:23:07.794Z,94231.41
2022-08-16T21:25:37.261Z,94248.72
2022-08-16T21:28:40.138Z,94238.38
2022-08-16T21:30:57.856Z,94231.56
2022-08-16T21:33:24.779Z,94235.38
2022-08-16T21:35:52.525Z,94224.59
2022-08-16T21:38:30.061Z,94235.91
2022-08-16T21:40:59.280Z,94243.69
2022-08-16T21:43:31.710Z,94249.81
2022-08-16T21:46:00.226Z,94224.31
2022-08-16T21:48:33.792Z,94221.78
2022-08-16T21:51:15.371Z,94207.16
2022-08-16T21:53:44.252Z,94202.06
2022-08-16T21:56:16.479Z,94237.94
2022-08-16T21:58:53.297Z,94224.59
2022-08-16T22:01:23.149Z,94243.13
2022-08-16T22:04:35.566Z,94234.59
2022-08-16T22:06:39.447Z,94250.56
2022-08-16T22:09:07.887Z,94229.84
2022-08-16T22:11:34.692Z,94253.72
2022-08-16T22:14:01.904Z,94230.81
2022-08-16T22:16:31.412Z,94228.84
2022-08-16T22:18:58.658Z,94234.00
2022-08-16T22:21:26.471Z,94244.00
2022-08-16T22:23:57.199Z,94245.50
2022-08-16T22:26:31.755Z,94240.38
2022-08-16T22:29:01.065Z,94218.44
2022-08-16T22:31:28.686Z,94212.84
2022-08-16T22:33:56.896Z,94214.41
2022-08-16T22:36:24.045Z,94217.44
2022-08-16T22:38:58.031Z,94211.34
2022-08-16T22:41:26.677Z,94209.78
2022-08-16T22:43:53.618Z,94242.72
2022-08-16T22:46:20.950Z,94218.69
2022-08-16T22:48:50.593Z,94212.59
2022-08-16T22:51:22.823Z,94200.53
2022-08-16T22:53:50.426Z,94214.88
2022-08-16T22:56:17.664Z,94203.41
2022-08-16T22:58:45.770Z,94236.66
2022-08-16T23:01:13.943Z,94238.19
2022-08-16T23:03:41.597Z,94242.97
2022-08-16T23:06:10.472Z,94238.50
2022-08-16T23:08:40.940Z,94234.75
2022-08-16T23:11:21.253Z,94235.56
2022-08-16T23:13:54.379Z,94233.13
2022-08-16T23:16:33.731Z,94233.44
2022-08-16T23:19:10.136Z,94203.31
2022-08-16T23:21:39.985Z,94218.47
2022-08-16T23:24:08.598Z,94228.00
2022-08-16T23:26:47.870Z,94208.97
2022-08-16T23:29:24.085Z,94219.59
2022-08-16T23:31:59.118Z,94229.28
2022-08-16T23:34:27.555Z,94212.41
2022-08-16T23:36:55.238Z,94207.50
2022-08-16T23:39:22.350Z,94220.31
2022-08-16T23:41:49.525Z,94234.72
2022-08-16T23:44:55.801Z,94218.28
2022-08-16T23:47:06.012Z,94214.84
2022-08-16T23:49:57.445Z,94220.53
2022-08-16T23:52:54.025Z,94219.69
2022-08-16T23:55:07.838Z,94208.00
2022-08-16T23:57:34.623Z,94212.97
